ProRodeoTv.Com
Red

PRCA Stock Statistics

SEARCH BY:
Stock Rodeo Contestant Stock Contractor

Cayd Kluesner

EVENT:
Unofficial results reflect placement at time of Web posting and can change.

SEASON BREAKDOWN

Season Attempts Qual Rides Re-rides Ride %
2012 21 2 0 9.52 %
2011 14 1 0 7.14 %
Totals 35 3 0 0.00 %

RODEO DETAIL

Date Location Rodeo SC Brand Ride Comments Stock Score Contestant Score
7/28/2012 Helena, MT Last Chance Stampede GK 622 0.00 0.00 / 0.00 0.00 / 0.00
7/27/2012 Preston, ID That Famous Preston Night Rodeo BT 604 79.00 20.00 / 19.00 20.00 / 20.00
7/25/2012 Joseph, OR Chief Joseph Days GR S701 0.00 0.00 / 0.00 0.00 / 0.00
7/24/2012 Salt Lake City, UT The Days Of 47 Rodeo DG P65 0.00 -99.00 / -99.00 0.00 / 0.00
7/19/2012 Nampa, ID Snake River Stampede FL 76U 0.00 -99.00 / -99.00 0.00 / 0.00
7/14/2012 Elgin, OR Elgin Stampede FF 376 0.00 -99.00 / -99.00 0.00 / 0.00
7/7/2012 Isanti, MN Isanti Firefighters Rodeo PK 3 0.00 0.00 / 0.00 0.00 / 0.00
7/7/2012 Hamel, MN Hamel Rodeo & Bull Ridin' Bonanza DB 45 0.00 -99.00 / -99.00 0.00 / 0.00
7/5/2012 Hamel, MN Hamel Rodeo & Bull Ridin' Bonanza DB O26 0.00 -99.00 / -99.00 0.00 / 0.00
7/4/2012 Belle Fourche, SD Black Hills Round-Up DH 29U 0.00 -99.00 / -99.00 0.00 / 0.00
6/22/2012 Pleasant Grove, UT Strawberry Days BT 406 0.00 -99.00 / -99.00 0.00 / 0.00
6/17/2012 Belt, MT 52Nd Annual Belt Rodeo BR 46U 0.00 -99.00 / -99.00 0.00 / 0.00
6/16/2012 Sturgis, SD Sturgis Wild West Days 59 0.00 -99.00 / -99.00 0.00 / 0.00
6/16/2012 Crazy Horse, SD Crazy Horse Stampede KR 61 0.00 0.00 / 0.00 0.00 / 0.00
6/10/2012 Union, OR Eastern Oregon Livestock Show BI 802 0.00 -99.00 / -99.00 0.00 / 0.00
6/8/2012 Sisters, OR Sisters Rodeo CH 516 0.00 -99.00 / -99.00 0.00 / 0.00
5/28/2012 Eagle Mountain, UT Pony Express Days Rodeo DH 518 0.00 -99.00 / -99.00 0.00 / 0.00
5/5/2012 Duncan, OK Chisholm Trail Stampede PRCA Rodeo RH 75 0.00 -99.00 / -99.00 0.00 / 0.00
2/11/2012 Jackson, MS Dixie National Rodeo SH 185 0.00 0.00 / 0.00 0.00 / 0.00
1/27/2012 Lincoln, NE PRCA Championship Rodeo MO 43 68.00 16.00 / 17.00 18.00 / 17.00
12/29/2011 Mesquite, TX Mesquite Winter Classic SH 150 0.00 -99.00 / -99.00 0.00 / 0.00
Page of 1
Per Page
 
 
 
Copyright © 2017 Professional Rodeo Cowboys Association. All rights reserved. No portion of ProRodeo.com may be duplicated, redistributed or manipulated in any form. By accessing any information beyond this page, you agree to abide by the Terms of Use.
PRCA Wrangler National Finals Rodeo Wrangler Champions Challenge Justin Boots Playoffs Xtreme Bulls RAM National Circuit Finals Rodeo ProRodeo Gear